createdAt,value
2018-05-03T00:00:47.163Z,14.97
2018-05-03T00:03:17.104Z,15.10
2018-05-03T00:05:46.611Z,14.47
2018-05-03T00:08:16.143Z,14.57
2018-05-03T00:10:45.668Z,15.03
2018-05-03T00:13:15.191Z,14.60
2018-05-03T00:15:44.715Z,15.20
2018-05-03T00:18:14.707Z,15.10
2018-05-03T00:20:44.654Z,14.73
2018-05-03T00:23:14.641Z,15.17
2018-05-03T00:25:44.171Z,15.43
2018-05-03T00:28:14.097Z,15.07
2018-05-03T00:30:44.023Z,15.00
2018-05-03T00:33:13.561Z,15.93
2018-05-03T00:35:43.073Z,15.43
2018-05-03T00:38:12.587Z,15.17
2018-05-03T00:40:42.155Z,16.00
2018-05-03T00:43:11.735Z,15.50
2018-05-03T00:45:41.655Z,14.47
2018-05-03T00:48:11.600Z,14.87
2018-05-03T00:50:41.133Z,14.07
2018-05-03T00:53:10.657Z,14.00
2018-05-03T00:55:40.199Z,14.57
2018-05-03T00:58:09.756Z,15.03
2018-05-03T01:00:39.139Z,13.83
2018-05-03T01:03:08.343Z,14.57
2018-05-03T01:05:37.905Z,13.83
2018-05-03T01:08:07.897Z,12.73
2018-05-03T01:10:37.407Z,13.83
2018-05-03T01:13:06.947Z,13.20
2018-05-03T01:15:36.504Z,14.27
2018-05-03T01:18:06.030Z,14.63
2018-05-03T01:20:35.338Z,12.97
2018-05-03T01:23:05.291Z,14.37
2018-05-03T01:25:34.814Z,13.87
2018-05-03T01:28:04.339Z,13.27
2018-05-03T01:30:34.081Z,13.40
2018-05-03T01:33:04.172Z,13.37
2018-05-03T01:35:50.321Z,13.20
2018-05-03T01:38:19.870Z,13.80
2018-05-03T01:40:49.548Z,12.97
2018-05-03T01:43:19.096Z,12.33
2018-05-03T01:45:48.633Z,12.57
2018-05-03T01:48:18.569Z,12.70
2018-05-03T01:50:48.116Z,12.43
2018-05-03T01:53:17.651Z,12.47
2018-05-03T01:55:47.663Z,12.53
2018-05-03T01:58:17.629Z,11.93
2018-05-03T02:00:47.157Z,12.43
2018-05-03T02:03:16.689Z,11.80
2018-05-03T02:05:46.230Z,11.93
2018-05-03T02:08:15.854Z,11.93
2018-05-03T02:10:45.456Z,11.83
2018-05-03T02:13:14.979Z,11.40
2018-05-03T02:15:44.495Z,11.80
2018-05-03T02:18:14.032Z,11.47
2018-05-03T02:20:43.955Z,12.03
2018-05-03T02:23:13.964Z,11.23
2018-05-03T02:25:43.907Z,11.77
2018-05-03T02:28:13.481Z,11.27
2018-05-03T02:30:43.034Z,11.57
2018-05-03T02:33:12.596Z,11.43
2018-05-03T02:35:42.548Z,11.87
2018-05-03T02:38:12.096Z,10.90
2018-05-03T02:40:41.620Z,10.30
2018-05-03T02:43:11.127Z,10.37
2018-05-03T02:45:40.811Z,10.50
2018-05-03T02:48:10.441Z,10.07
2018-05-03T02:50:39.950Z,10.10
2018-05-03T02:53:09.522Z,10.43
2018-05-03T02:55:39.050Z,10.73
2018-05-03T02:58:25.548Z,11.10
2018-05-03T03:01:17.194Z,10.63
2018-05-03T03:04:09.247Z,11.00
2018-05-03T03:07:01.653Z,10.13
2018-05-03T03:13:28.893Z,11.13
2018-05-03T03:16:20.832Z,10.57
2018-05-03T03:19:12.664Z,10.57
2018-05-03T03:22:04.648Z,10.90
2018-05-03T03:24:48.428Z,10.53
2018-05-03T03:27:40.522Z,11.20
2018-05-03T03:30:32.199Z,11.53
2018-05-03T03:33:18.721Z,10.37
2018-05-03T03:36:14.089Z,11.10
2018-05-03T03:39:00.777Z,10.43
2018-05-03T03:41:43.604Z,10.63
2018-05-03T03:44:30.253Z,10.77
2018-05-03T03:46:59.830Z,11.50
2018-05-03T03:49:29.364Z,11.13
2018-05-03T03:51:58.919Z,11.83
2018-05-03T03:54:28.452Z,12.13
2018-05-03T03:56:57.978Z,10.83
2018-05-03T03:59:27.518Z,10.93
2018-05-03T04:01:57.049Z,12.57
2018-05-03T04:04:26.980Z,12.30
2018-05-03T04:06:56.894Z,12.93
2018-05-03T04:09:26.813Z,12.77
2018-05-03T04:11:56.803Z,13.67
2018-05-03T04:14:26.522Z,12.50
2018-05-03T04:16:56.041Z,12.83
2018-05-03T04:19:43.000Z,12.47
2018-05-03T04:22:29.330Z,11.60
2018-05-03T04:25:15.909Z,11.40
2018-05-03T04:27:45.457Z,11.00
2018-05-03T04:30:14.972Z,11.63
2018-05-03T04:32:44.892Z,10.97
2018-05-03T04:35:14.805Z,11.50
2018-05-03T04:37:44.738Z,11.73
2018-05-03T04:40:14.267Z,10.30
2018-05-03T04:42:43.820Z,11.30
2018-05-03T04:45:13.773Z,10.50
2018-05-03T04:47:43.285Z,10.33
2018-05-03T04:50:13.302Z,10.80
2018-05-03T04:52:43.397Z,10.73
2018-05-03T04:55:13.347Z,11.33
2018-05-03T04:57:42.881Z,11.53
2018-05-03T05:00:12.455Z,10.70
2018-05-03T05:02:41.989Z,10.97
2018-05-03T05:05:11.508Z,11.87
2018-05-03T05:07:41.083Z,10.27
2018-05-03T05:10:10.813Z,10.60
2018-05-03T05:12:40.356Z,10.23
2018-05-03T05:15:10.329Z,11.73
2018-05-03T05:17:39.960Z,10.73
2018-05-03T05:20:09.359Z,10.33
2018-05-03T05:22:38.881Z,10.63
2018-05-03T05:25:09.221Z,11.37
2018-05-03T05:27:40.053Z,10.57
2018-05-03T05:30:09.993Z,11.07
2018-05-03T05:32:39.519Z,10.60
2018-05-03T05:35:08.859Z,10.40
2018-05-03T05:37:38.721Z,9.80
2018-05-03T05:40:08.025Z,10.03
2018-05-03T05:42:37.333Z,10.00
2018-05-03T05:45:06.901Z,10.10
2018-05-03T05:47:36.955Z,11.27
2018-05-03T05:50:06.163Z,10.10
2018-05-03T05:52:35.537Z,9.50
2018-05-03T05:55:05.086Z,9.57
2018-05-03T05:57:34.620Z,9.47
2018-05-03T06:00:04.078Z,9.13
2018-05-03T06:02:33.631Z,9.47
2018-05-03T06:05:03.255Z,10.13
2018-05-03T06:07:33.222Z,9.27
2018-05-03T06:10:02.765Z,9.60
2018-05-03T06:12:32.303Z,9.20
2018-05-03T06:15:02.765Z,10.13
2018-05-03T06:17:32.303Z,10.70
2018-05-03T06:20:02.633Z,9.60
2018-05-03T06:22:32.289Z,9.63
2018-05-03T06:25:02.326Z,9.27
2018-05-03T06:27:51.405Z,9.13
2018-05-03T06:30:20.921Z,8.97
2018-05-03T06:32:50.476Z,8.63
2018-05-03T06:35:20.022Z,8.70
2018-05-03T06:37:49.549Z,9.23
2018-05-03T06:40:19.056Z,9.37
2018-05-03T06:42:49.000Z,9.37
2018-05-03T06:45:18.794Z,8.43
2018-05-03T06:47:48.527Z,8.10
2018-05-03T06:50:18.048Z,8.90
2018-05-03T06:52:47.813Z,8.63
2018-05-03T06:55:17.715Z,8.97
2018-05-03T06:57:47.248Z,8.67
2018-05-03T07:00:17.202Z,8.23
2018-05-03T07:02:46.727Z,8.50
2018-05-03T07:05:16.282Z,8.43
2018-05-03T07:07:45.805Z,8.30
2018-05-03T07:10:15.331Z,8.03
2018-05-03T07:12:44.928Z,7.90
2018-05-03T07:15:14.464Z,7.80
2018-05-03T07:17:44.008Z,8.17
2018-05-03T07:20:13.932Z,7.60
2018-05-03T07:22:43.887Z,8.17
2018-05-03T07:25:13.446Z,7.80
2018-05-03T07:27:43.353Z,7.60
2018-05-03T07:30:13.316Z,7.60
2018-05-03T07:32:43.418Z,7.30
2018-05-03T07:35:12.780Z,7.77
2018-05-03T07:37:42.318Z,7.60
2018-05-03T07:40:11.844Z,7.53
2018-05-03T07:42:41.360Z,7.97
2018-05-03T07:45:10.965Z,6.93
2018-05-03T07:47:40.559Z,6.67
2018-05-03T07:50:10.120Z,6.97
2018-05-03T07:52:39.664Z,6.80
2018-05-03T07:55:09.166Z,6.37
2018-05-03T07:57:38.713Z,5.10
2018-05-03T08:00:08.246Z,5.47
2018-05-03T08:02:37.768Z,6.10
2018-05-03T08:05:07.365Z,6.63
2018-05-03T08:07:37.278Z,6.23
2018-05-03T08:10:07.247Z,5.50
2018-05-03T08:12:36.778Z,5.30
2018-05-03T08:15:06.471Z,6.07
2018-05-03T08:17:36.019Z,5.70
2018-05-03T08:20:05.209Z,5.90
2018-05-03T08:22:34.726Z,5.60
2018-05-03T08:25:04.412Z,4.80
2018-05-03T08:27:33.920Z,5.13
2018-05-03T08:30:03.470Z,5.50
2018-05-03T08:32:32.986Z,4.83
2018-05-03T08:35:02.507Z,5.07
2018-05-03T08:37:32.018Z,6.33
2018-05-03T08:40:01.554Z,5.70
2018-05-03T08:42:31.265Z,5.00
2018-05-03T08:45:00.780Z,4.70
2018-05-03T08:47:30.300Z,4.57
2018-05-03T08:50:00.296Z,4.93
2018-05-03T08:52:30.227Z,5.10
2018-05-03T08:55:00.143Z,4.23
2018-05-03T08:57:30.051Z,4.67
2018-05-03T08:59:59.984Z,4.10
2018-05-03T09:02:29.913Z,4.77
2018-05-03T09:04:59.513Z,4.53
2018-05-03T09:07:29.044Z,4.37
2018-05-03T09:09:58.552Z,3.73
2018-05-03T09:12:28.066Z,4.43
2018-05-03T09:14:57.828Z,4.63
2018-05-03T09:17:27.763Z,4.37
2018-05-03T09:19:57.307Z,4.83
2018-05-03T09:22:26.911Z,3.50
2018-05-03T09:24:56.579Z,4.47
2018-05-03T09:27:25.874Z,4.00
2018-05-03T09:29:55.798Z,4.30
2018-05-03T09:32:25.344Z,4.50
2018-05-03T09:34:54.922Z,4.33
2018-05-03T09:37:24.434Z,4.43
2018-05-03T09:39:53.968Z,4.10
2018-05-03T09:43:26.590Z,4.17
2018-05-03T09:45:56.516Z,4.00
2018-05-03T09:48:26.468Z,4.33
2018-05-03T09:50:56.089Z,4.47
2018-05-03T09:53:25.630Z,4.00
2018-05-03T09:55:55.178Z,4.47
2018-05-03T09:58:24.726Z,5.17
2018-05-03T10:00:54.244Z,4.60
2018-05-03T10:03:23.798Z,4.10
2018-05-03T10:05:53.698Z,4.00
2018-05-03T10:08:23.266Z,4.70
2018-05-03T10:10:52.792Z,4.33
2018-05-03T10:13:22.757Z,4.33
2018-05-03T10:15:52.414Z,4.77
2018-05-03T10:18:22.390Z,4.73
2018-05-03T10:20:51.934Z,4.83
2018-05-03T10:23:21.472Z,4.70
2018-05-03T10:25:51.026Z,4.10
2018-05-03T10:28:20.568Z,4.80
2018-05-03T10:30:50.120Z,3.93
2018-05-03T10:33:19.651Z,4.27
2018-05-03T10:35:51.119Z,4.50
2018-05-03T10:38:20.706Z,5.03
2018-05-03T10:40:50.234Z,5.40
2018-05-03T10:43:20.160Z,4.83
2018-05-03T10:45:50.101Z,5.10
2018-05-03T10:48:19.710Z,5.00
2018-05-03T10:50:49.306Z,5.07
2018-05-03T10:53:18.857Z,4.80
2018-05-03T10:55:48.366Z,5.23
2018-05-03T10:58:17.918Z,5.13
2018-05-03T11:00:48.095Z,5.43
2018-05-03T11:03:19.070Z,4.80
2018-05-03T11:05:48.763Z,5.00
2018-05-03T11:08:18.068Z,5.20
2018-05-03T11:10:48.007Z,4.90
2018-05-03T11:13:17.573Z,4.87
2018-05-03T11:15:47.285Z,5.17
2018-05-03T11:18:16.809Z,5.00
2018-05-03T11:20:46.360Z,5.27
2018-05-03T11:23:15.883Z,4.97
2018-05-03T11:25:45.394Z,6.50
2018-05-03T11:28:14.923Z,5.70
2018-05-03T11:30:44.463Z,5.27
2018-05-03T11:33:14.004Z,5.77
2018-05-03T11:35:43.516Z,5.83
2018-05-03T11:38:13.064Z,6.40
2018-05-03T11:40:43.060Z,5.70
2018-05-03T11:43:12.574Z,4.97
2018-05-03T11:45:42.104Z,5.60
2018-05-03T11:48:12.035Z,5.40
2018-05-03T11:50:42.157Z,5.47
2018-05-03T11:53:11.682Z,5.60
2018-05-03T11:55:41.323Z,6.17
2018-05-03T11:58:10.622Z,5.50
2018-05-03T12:00:40.131Z,5.90
2018-05-03T12:03:10.450Z,5.57
2018-05-03T12:05:40.006Z,6.67
2018-05-03T12:08:10.208Z,5.90
2018-05-03T12:10:40.196Z,5.70
2018-05-03T12:13:09.776Z,5.93
2018-05-03T12:15:39.312Z,6.23
2018-05-03T12:18:08.855Z,5.30
2018-05-03T12:20:38.378Z,5.93
2018-05-03T12:23:07.912Z,6.37
2018-05-03T12:25:37.457Z,7.43
2018-05-03T12:28:07.386Z,7.17
2018-05-03T12:30:37.328Z,7.93
2018-05-03T12:33:06.842Z,6.33
2018-05-03T12:35:36.378Z,6.43
2018-05-03T12:38:05.906Z,5.43
2018-05-03T12:40:35.861Z,5.77
2018-05-03T12:43:05.523Z,6.67
2018-05-03T12:45:35.452Z,6.40
2018-05-03T12:48:05.411Z,6.27
2018-05-03T12:50:34.928Z,6.20
2018-05-03T12:53:04.456Z,6.40
2018-05-03T12:55:34.001Z,6.63
2018-05-03T12:58:03.538Z,6.30
2018-05-03T13:00:33.136Z,7.60
2018-05-03T13:03:02.656Z,6.83
2018-05-03T13:05:32.184Z,7.03
2018-05-03T13:08:01.691Z,6.90
2018-05-03T13:10:31.229Z,7.57
2018-05-03T13:13:01.020Z,7.27
2018-05-03T13:15:30.591Z,7.33
2018-05-03T13:18:00.184Z,6.80
2018-05-03T13:20:29.716Z,7.20
2018-05-03T13:22:59.238Z,6.87
2018-05-03T13:25:28.793Z,6.83
2018-05-03T13:27:59.152Z,6.90
2018-05-03T13:30:29.216Z,6.10
2018-05-03T13:32:59.148Z,6.77
2018-05-03T13:35:28.776Z,6.57
2018-05-03T13:37:58.596Z,6.17
2018-05-03T13:40:27.635Z,6.30
2018-05-03T13:42:57.969Z,7.20
2018-05-03T13:45:27.450Z,7.53
2018-05-03T13:47:57.303Z,7.13
2018-05-03T13:50:27.331Z,6.50
2018-05-03T13:52:56.875Z,6.57
2018-05-03T13:55:26.888Z,6.53
2018-05-03T13:57:56.971Z,6.30
2018-05-03T14:00:27.650Z,6.20
2018-05-03T14:02:59.474Z,6.53
2018-05-03T14:05:29.051Z,5.90
2018-05-03T14:07:58.792Z,6.10
2018-05-03T14:10:28.374Z,6.70
2018-05-03T14:12:58.334Z,6.17
2018-05-03T14:15:28.419Z,7.77
2018-05-03T14:17:58.407Z,6.80
2018-05-03T14:20:27.727Z,7.60
2018-05-03T14:22:57.630Z,6.80
2018-05-03T14:25:27.599Z,7.93
2018-05-03T14:27:57.171Z,7.60
2018-05-03T14:30:27.102Z,7.47
2018-05-03T14:32:56.636Z,6.67
2018-05-03T14:35:26.155Z,6.97
2018-05-03T14:37:55.753Z,7.67
2018-05-03T14:40:25.267Z,7.20
2018-05-03T14:42:54.817Z,6.80
2018-05-03T14:45:24.370Z,6.80
2018-05-03T14:47:53.923Z,7.10
2018-05-03T14:50:24.147Z,6.73
2018-05-03T14:52:54.234Z,6.70
2018-05-03T14:55:23.808Z,6.67
2018-05-03T14:57:53.353Z,6.50
2018-05-03T15:00:23.100Z,6.97
2018-05-03T15:02:53.104Z,7.30
2018-05-03T15:05:23.123Z,7.73
2018-05-03T15:07:53.155Z,7.13
2018-05-03T15:10:22.689Z,7.90
2018-05-03T15:12:52.823Z,8.07
2018-05-03T15:15:22.349Z,7.90
2018-05-03T15:17:51.965Z,8.20
2018-05-03T15:20:21.573Z,7.63
2018-05-03T15:22:51.099Z,8.57
2018-05-03T15:25:21.037Z,8.20
2018-05-03T15:27:50.315Z,7.77
2018-05-03T15:30:20.303Z,7.83
2018-05-03T15:32:49.823Z,7.70
2018-05-03T15:35:19.173Z,9.83
2018-05-03T15:37:48.544Z,8.37
2018-05-03T15:40:18.267Z,8.03
2018-05-03T15:42:48.467Z,7.50
2018-05-03T15:45:17.999Z,8.30
2018-05-03T15:47:47.545Z,7.47
2018-05-03T15:50:17.182Z,7.70
2018-05-03T15:52:47.030Z,7.63
2018-05-03T15:55:17.260Z,8.70
2018-05-03T15:57:46.785Z,8.07
2018-05-03T16:00:16.331Z,8.07
2018-05-03T16:02:45.633Z,7.60
2018-05-03T16:05:16.382Z,8.10
2018-05-03T16:07:46.304Z,8.00
2018-05-03T16:10:16.233Z,7.43
2018-05-03T16:12:45.795Z,7.20
2018-05-03T16:15:15.334Z,7.03
2018-05-03T16:17:44.858Z,7.20
2018-05-03T16:20:14.375Z,7.97
2018-05-03T16:22:43.905Z,7.63
2018-05-03T16:25:13.437Z,8.20
2018-05-03T16:27:42.776Z,7.53
2018-05-03T16:30:12.287Z,7.30
2018-05-03T16:32:41.820Z,7.33
2018-05-03T16:35:11.378Z,7.57
2018-05-03T16:37:41.300Z,7.27
2018-05-03T16:40:10.827Z,7.00
2018-05-03T16:42:40.366Z,7.37
2018-05-03T16:45:09.917Z,6.97
2018-05-03T16:47:39.856Z,7.03
2018-05-03T16:50:09.400Z,6.70
2018-05-03T16:52:38.994Z,6.97
2018-05-03T16:55:09.086Z,6.20
2018-05-03T16:57:38.617Z,6.90
2018-05-03T17:00:08.145Z,6.50
2018-05-03T17:02:37.696Z,6.27
2018-05-03T17:05:07.277Z,5.93
2018-05-03T17:07:37.267Z,6.20
2018-05-03T17:10:06.772Z,6.50
2018-05-03T17:12:36.313Z,6.33
2018-05-03T17:15:06.253Z,5.83
2018-05-03T17:17:35.553Z,6.00
2018-05-03T17:20:04.511Z,5.60
2018-05-03T17:22:34.045Z,6.13
2018-05-03T17:25:03.583Z,5.80
2018-05-03T17:27:33.153Z,6.37
2018-05-03T17:30:03.077Z,6.30
2018-05-03T17:32:32.783Z,5.60
2018-05-03T17:35:02.319Z,5.83
2018-05-03T17:37:31.888Z,6.80
2018-05-03T17:40:01.796Z,6.87
2018-05-03T17:42:31.770Z,7.07
2018-05-03T17:45:01.279Z,7.80
2018-05-03T17:47:30.998Z,7.13
2018-05-03T17:50:00.534Z,7.30
2018-05-03T17:52:30.247Z,6.77
2018-05-03T17:55:00.266Z,7.03
2018-05-03T17:57:30.226Z,6.93
2018-05-03T17:59:59.761Z,7.10
2018-05-03T18:02:29.293Z,7.93
2018-05-03T18:04:59.204Z,7.03
2018-05-03T18:07:28.942Z,7.67
2018-05-03T18:09:58.491Z,6.77
2018-05-03T18:12:28.040Z,7.03
2018-05-03T18:14:57.568Z,6.70
2018-05-03T18:17:27.143Z,7.63
2018-05-03T18:19:56.690Z,7.07
2018-05-03T18:22:26.215Z,7.03
2018-05-03T18:24:55.786Z,6.70
2018-05-03T18:27:25.981Z,7.40
2018-05-03T18:29:55.689Z,6.63
2018-05-03T18:32:25.604Z,7.17
2018-05-03T18:34:55.585Z,6.93
2018-05-03T18:37:25.153Z,7.00
2018-05-03T18:39:54.657Z,6.97
2018-05-03T18:42:24.248Z,7.03
2018-05-03T18:44:54.171Z,7.10
2018-05-03T18:47:24.094Z,6.57
2018-05-03T18:49:53.674Z,6.57
2018-05-03T18:52:23.369Z,6.80
2018-05-03T18:54:52.698Z,6.83
2018-05-03T18:57:22.616Z,6.87
2018-05-03T18:59:52.828Z,6.40
2018-05-03T19:02:22.809Z,6.50
2018-05-03T19:04:52.356Z,6.67
2018-05-03T19:07:22.308Z,6.23
2018-05-03T19:09:51.872Z,6.93
2018-05-03T19:12:21.882Z,6.40
2018-05-03T19:14:51.404Z,6.57
2018-05-03T19:17:21.338Z,7.00
2018-05-03T19:19:51.132Z,6.90
2018-05-03T19:22:20.894Z,6.87
2018-05-03T19:24:50.476Z,6.40
2018-05-03T19:27:20.004Z,6.30
2018-05-03T19:29:49.538Z,6.53
2018-05-03T19:32:19.110Z,6.60
2018-05-03T19:34:48.661Z,6.53
2018-05-03T19:37:18.196Z,6.03
2018-05-03T19:39:47.715Z,6.93
2018-05-03T19:42:16.938Z,7.23
2018-05-03T19:44:46.465Z,7.00
2018-05-03T19:47:16.029Z,6.63
2018-05-03T19:49:45.564Z,7.00
2018-05-03T19:52:15.096Z,6.93
2018-05-03T19:54:45.048Z,6.80
2018-05-03T19:57:14.589Z,6.70
2018-05-03T19:59:43.912Z,7.33
2018-05-03T20:02:13.432Z,7.07
2018-05-03T20:04:43.405Z,7.00
2018-05-03T20:07:12.946Z,6.57
2018-05-03T20:09:42.553Z,7.07
2018-05-03T20:12:12.188Z,7.00
2018-05-03T20:14:42.768Z,6.53
2018-05-03T20:17:12.316Z,7.03
2018-05-03T20:19:42.250Z,7.03
2018-05-03T20:22:11.765Z,6.83
2018-05-03T20:24:41.318Z,6.50
2018-05-03T20:27:10.849Z,7.00
2018-05-03T20:29:40.791Z,6.33
2018-05-03T20:32:10.319Z,6.03
2018-05-03T20:34:39.846Z,6.93
2018-05-03T20:37:09.378Z,6.23
2018-05-03T20:39:39.347Z,6.80
2018-05-03T20:42:08.878Z,6.63
2018-05-03T20:44:38.422Z,6.67
2018-05-03T20:47:08.346Z,6.67
2018-05-03T20:49:37.900Z,6.20
2018-05-03T20:52:07.969Z,5.87
2018-05-03T20:54:38.010Z,5.27
2018-05-03T20:57:07.560Z,6.27
2018-05-03T20:59:37.610Z,6.23
2018-05-03T21:02:07.530Z,6.60
2018-05-03T21:04:38.020Z,6.40
2018-05-03T21:07:07.581Z,6.50
2018-05-03T21:09:37.720Z,6.93
2018-05-03T21:12:07.270Z,6.37
2018-05-03T21:14:36.952Z,7.07
2018-05-03T21:17:06.504Z,6.10
2018-05-03T21:19:36.040Z,6.60
2018-05-03T21:22:05.640Z,6.63
2018-05-03T21:24:35.902Z,6.90
2018-05-03T21:27:05.462Z,6.63
2018-05-03T21:29:35.075Z,6.27
2018-05-03T21:32:04.588Z,6.40
2018-05-03T21:34:34.127Z,6.87
2018-05-03T21:37:03.691Z,6.60
2018-05-03T21:39:33.209Z,6.90
2018-05-03T21:42:02.840Z,6.27
2018-05-03T21:44:32.369Z,6.00
2018-05-03T21:47:01.776Z,6.40
2018-05-03T21:49:31.326Z,5.57
2018-05-03T21:52:00.852Z,6.10
2018-05-03T21:54:30.409Z,6.80
2018-05-03T21:57:00.340Z,6.70
2018-05-03T21:59:30.932Z,6.80
2018-05-03T22:02:00.474Z,6.97
2018-05-03T22:04:30.185Z,6.33
2018-05-03T22:06:59.839Z,6.63
2018-05-03T22:09:29.480Z,6.67
2018-05-03T22:11:59.011Z,5.43
2018-05-03T22:14:29.012Z,5.80
2018-05-03T22:16:58.973Z,5.60
2018-05-03T22:19:28.489Z,5.60
2018-05-03T22:21:58.081Z,6.43
2018-05-03T22:24:27.434Z,6.10
2018-05-03T22:26:57.056Z,5.97
2018-05-03T22:29:26.970Z,6.60
2018-05-03T22:31:56.874Z,6.43
2018-05-03T22:34:26.171Z,6.70
2018-05-03T22:36:55.704Z,6.57
2018-05-03T22:39:25.626Z,6.93
2018-05-03T22:41:55.361Z,7.00
2018-05-03T22:44:24.867Z,6.80
2018-05-03T22:46:54.390Z,6.60
2018-05-03T22:49:24.863Z,5.60
2018-05-03T22:51:54.495Z,6.03
2018-05-03T22:54:24.750Z,7.00
2018-05-03T22:56:55.028Z,7.13
2018-05-03T22:59:25.757Z,6.90
2018-05-03T23:01:55.760Z,6.60
2018-05-03T23:04:25.315Z,6.77
2018-05-03T23:06:54.837Z,6.50
2018-05-03T23:09:24.408Z,6.07
2018-05-03T23:11:53.931Z,6.30
2018-05-03T23:14:23.338Z,6.63
2018-05-03T23:16:53.085Z,6.10
2018-05-03T23:19:23.494Z,6.47
2018-05-03T23:21:53.069Z,6.33
2018-05-03T23:24:22.642Z,6.60
2018-05-03T23:26:52.568Z,6.50
2018-05-03T23:29:22.590Z,7.33
2018-05-03T23:31:52.520Z,7.20
2018-05-03T23:34:22.048Z,6.80
2018-05-03T23:36:51.580Z,6.50
2018-05-03T23:39:21.324Z,7.37
2018-05-03T23:41:51.268Z,7.60
2018-05-03T23:44:21.584Z,8.10
2018-05-03T23:46:51.174Z,8.00
2018-05-03T23:49:21.388Z,7.47
2018-05-03T23:51:51.376Z,7.50
2018-05-03T23:54:20.911Z,7.53
2018-05-03T23:56:50.980Z,7.80
2018-05-03T23:59:20.612Z,7.40
